This is the latest recevied weather packets stored in our database for station/object DD3FC-1. If no packets are shown the sender has not sent any weather packets the latest 10 day(s).
| Time | Temp. | Humidity | Pressure | Rain* | Wind** | Luminosity | Snow |
|---|---|---|---|---|---|---|---|
| 1777799436 | 17.22° C | 69% | 1016.4 hPa | 0 mm | - | - | - |
| 1777798836 | 17.22° C | 67% | 1016.2 hPa | 0 mm | - | - | - |
| 1777798236 | 17.78° C | 63% | 1016 hPa | 0 mm | - | - | - |
| 1777797636 | 18.33° C | 54% | 1016.5 hPa | 0 mm | - | - | - |
| 1777797036 | 18.33° C | 51% | 1016.4 hPa | 0 mm | - | - | - |
| 1777796437 | 18.89° C | 46% | 1016.7 hPa | 0 mm | - | - | - |
| 1777795837 | 18.89° C | 48% | 1017 hPa | 0 mm | - | - | - |
| 1777795237 | 18.89° C | 51% | 1016.9 hPa | 0 mm | - | - | - |
| 1777794637 | 18.89° C | 57% | 1016.9 hPa | 0 mm | - | - | - |
| 1777794037 | 18.33° C | 65% | 1016.4 hPa | 0 mm | - | - | - |
| 1777793437 | 16.67° C | 71% | 1016.4 hPa | 0 mm | - | - | - |
| 1777792837 | 15.56° C | 78% | 1016.5 hPa | 0 mm | - | - | - |
| 1777792237 | 14.44° C | 81% | 1016.6 hPa | 0 mm | - | - | - |
| 1777791637 | 13.89° C | 81% | 1016.5 hPa | 0 mm | - | - | - |
| 1777791037 | 13.89° C | 82% | 1016.3 hPa | 0 mm | - | - | - |
| 1777790437 | 13.89° C | 82% | 1016.8 hPa | 0.25 mm | - | - | - |
| 1777789837 | 13.33° C | 82% | 1016.8 hPa | 0.25 mm | - | - | - |
| 1777789237 | 13.33° C | 83% | 1017 hPa | 0.25 mm | - | - | - |
| 1777788637 | 12.78° C | 82% | 1016.9 hPa | 0.25 mm | - | - | - |
| 1777788037 | 12.78° C | 80% | 1017 hPa | 0.25 mm | - | - | - |
| 1777787437 | 12.78° C | 79% | 1016.8 hPa | 0.25 mm | - | - | - |
| 1777786837 | 13.33° C | 74% | 1016.7 hPa | 0 mm | - | - | - |
| 1777786237 | 13.33° C | 68% | 1016.6 hPa | 0 mm | - | - | - |
| 1777785637 | 12.78° C | 69% | 1016.8 hPa | 0 mm | - | - | - |
| 1777785037 | 12.78° C | 70% | 1016 hPa | 0 mm | - | - | - |
* Rain latest hour (hover to see other rain measurements)
** Current wind speed in m/s (hover to see current wind gust speed)